createdAt,value
2018-06-19T00:00:23.136Z,10.92
2018-06-19T00:01:23.131Z,10.92
2018-06-19T00:02:23.140Z,12.07
2018-06-19T00:03:23.119Z,13.89
2018-06-19T00:04:23.123Z,11.01
2018-06-19T00:05:23.112Z,8.43
2018-06-19T00:06:23.105Z,8.91
2018-06-19T00:07:23.097Z,11.59
2018-06-19T00:08:23.092Z,14.27
2018-06-19T00:09:23.086Z,14.46
2018-06-19T00:10:23.086Z,10.92
2018-06-19T00:11:23.071Z,10.25
2018-06-19T00:12:23.068Z,9.77
2018-06-19T00:13:23.064Z,7.18
2018-06-19T00:14:23.055Z,8.72
2018-06-19T00:15:23.058Z,10.44
2018-06-19T00:16:23.046Z,16.96
2018-06-19T00:17:23.037Z,9.10
2018-06-19T00:18:23.033Z,8.33
2018-06-19T00:19:23.033Z,7.18
2018-06-19T00:20:23.018Z,8.33
2018-06-19T00:21:23.016Z,8.62
2018-06-19T00:22:23.011Z,5.07
2018-06-19T00:23:23.001Z,8.62
2018-06-19T00:24:22.997Z,14.56
2018-06-19T00:25:22.991Z,9.58
2018-06-19T00:26:22.981Z,11.21
2018-06-19T00:27:23.624Z,7.76
2018-06-19T00:28:22.975Z,12.55
2018-06-19T00:29:22.967Z,11.59
2018-06-19T00:30:22.964Z,12.93
2018-06-19T00:31:22.956Z,8.62
2018-06-19T00:32:22.946Z,12.26
2018-06-19T00:33:22.945Z,3.35
2018-06-19T00:34:22.940Z,7.09
2018-06-19T00:35:22.932Z,5.94
2018-06-19T00:36:22.924Z,6.70
2018-06-19T00:37:22.915Z,9.48
2018-06-19T00:38:22.924Z,11.88
2018-06-19T00:39:22.903Z,6.13
2018-06-19T00:40:22.900Z,7.09
2018-06-19T00:41:22.892Z,6.23
2018-06-19T00:42:22.889Z,3.25
2018-06-19T00:43:22.881Z,4.21
2018-06-19T00:44:22.915Z,5.27
2018-06-19T00:45:22.873Z,4.21
2018-06-19T00:46:22.867Z,2.39
2018-06-19T00:47:22.854Z,4.50
2018-06-19T00:48:22.852Z,0.86
2018-06-19T00:49:22.844Z,1.15
2018-06-19T00:50:22.842Z,3.06
2018-06-19T00:51:22.832Z,6.32
2018-06-19T00:52:22.828Z,0.38
2018-06-19T00:53:22.817Z,4.98
2018-06-19T00:54:22.811Z,1.91
2018-06-19T00:55:22.808Z,0.00
2018-06-19T00:56:22.798Z,3.64
2018-06-19T00:57:22.796Z,3.25
2018-06-19T00:58:22.788Z,4.31
2018-06-19T00:59:22.782Z,4.88
2018-06-19T01:00:22.777Z,4.21
2018-06-19T01:01:22.771Z,3.92
2018-06-19T01:02:22.762Z,3.83
2018-06-19T01:03:22.776Z,5.36
2018-06-19T01:04:22.751Z,3.06
2018-06-19T01:05:22.746Z,6.32
2018-06-19T01:06:22.740Z,6.80
2018-06-19T01:07:22.731Z,4.40
2018-06-19T01:08:22.728Z,8.04
2018-06-19T01:09:22.722Z,7.37
2018-06-19T01:10:22.712Z,6.60
2018-06-19T01:11:22.712Z,4.02
2018-06-19T01:12:22.702Z,3.92
2018-06-19T01:13:22.698Z,2.97
2018-06-19T01:14:22.690Z,5.07
2018-06-19T01:15:22.680Z,6.51
2018-06-19T01:16:22.681Z,3.64
2018-06-19T01:17:22.672Z,6.42
2018-06-19T01:18:22.665Z,4.31
2018-06-19T01:19:22.662Z,7.38
2018-06-19T01:20:22.655Z,4.60
2018-06-19T01:21:22.655Z,8.23
2018-06-19T01:22:22.646Z,4.88
2018-06-19T01:23:22.640Z,2.20
2018-06-19T01:24:22.627Z,1.05
2018-06-19T01:25:22.625Z,1.43
2018-06-19T01:26:22.622Z,0.95
2018-06-19T01:27:22.615Z,4.79
2018-06-19T01:28:22.608Z,0.48
2018-06-19T01:29:22.602Z,2.01
2018-06-19T01:30:22.595Z,0.00
2018-06-19T01:31:22.585Z,0.67
2018-06-19T01:32:22.585Z,1.82
2018-06-19T01:33:22.578Z,1.34
2018-06-19T01:34:22.573Z,0.00
2018-06-19T01:35:22.562Z,0.00
2018-06-19T01:36:22.566Z,0.29
2018-06-19T01:37:22.553Z,2.39
2018-06-19T01:38:22.548Z,0.38
2018-06-19T01:39:22.543Z,0.00
2018-06-19T01:40:22.531Z,2.29
2018-06-19T01:41:22.526Z,2.29
2018-06-19T01:42:22.524Z,2.20
2018-06-19T01:43:22.518Z,0.00
2018-06-19T01:44:22.512Z,2.20
2018-06-19T01:45:22.509Z,1.62
2018-06-19T01:46:22.502Z,3.83
2018-06-19T01:47:22.493Z,2.39
2018-06-19T01:48:22.484Z,1.25
2018-06-19T01:49:22.483Z,0.86
2018-06-19T01:50:22.478Z,0.38
2018-06-19T01:51:22.471Z,4.11
2018-06-19T01:52:22.464Z,2.87
2018-06-19T01:53:22.461Z,2.78
2018-06-19T01:54:22.448Z,1.62
2018-06-19T01:55:22.445Z,2.11
2018-06-19T01:56:22.439Z,3.35
2018-06-19T01:57:22.435Z,5.74
2018-06-19T01:58:22.428Z,5.74
2018-06-19T01:59:22.426Z,6.80
2018-06-19T02:00:22.418Z,6.80
2018-06-19T02:01:22.416Z,7.18
2018-06-19T02:02:22.408Z,7.18
2018-06-19T02:03:22.396Z,8.23
2018-06-19T02:04:22.389Z,8.33
2018-06-19T02:05:22.391Z,8.81
2018-06-19T02:06:22.380Z,7.18
2018-06-19T02:07:22.376Z,7.56
2018-06-19T02:08:22.367Z,6.61
2018-06-19T02:09:22.370Z,8.52
2018-06-19T02:10:22.358Z,8.52
2018-06-19T02:11:22.350Z,7.56
2018-06-19T02:12:22.345Z,9.58
2018-06-19T02:13:22.340Z,9.00
2018-06-19T02:14:22.334Z,9.48
2018-06-19T02:15:22.330Z,9.58
2018-06-19T02:16:22.325Z,10.35
2018-06-19T02:17:22.315Z,11.11
2018-06-19T02:18:22.305Z,8.62
2018-06-19T02:19:22.299Z,8.53
2018-06-19T02:20:22.300Z,9.68
2018-06-19T02:21:22.292Z,10.82
2018-06-19T02:22:22.285Z,9.77
2018-06-19T02:23:22.292Z,9.58
2018-06-19T02:24:22.273Z,8.72
2018-06-19T02:25:22.269Z,9.77
2018-06-19T02:26:22.264Z,8.43
2018-06-19T02:27:22.257Z,9.86
2018-06-19T02:28:22.247Z,9.67
2018-06-19T02:29:22.250Z,8.72
2018-06-19T02:30:22.241Z,9.39
2018-06-19T02:31:22.233Z,10.25
2018-06-19T02:32:22.253Z,10.35
2018-06-19T02:33:22.223Z,10.35
2018-06-19T02:34:22.217Z,9.48
2018-06-19T02:35:22.203Z,9.48
2018-06-19T02:36:22.223Z,9.77
2018-06-19T02:37:22.197Z,8.91
2018-06-19T02:38:22.213Z,9.58
2018-06-19T02:39:22.202Z,9.96
2018-06-19T02:40:22.179Z,10.83
2018-06-19T02:41:22.199Z,10.15
2018-06-19T02:42:22.167Z,10.82
2018-06-19T02:43:22.160Z,10.53
2018-06-19T02:44:22.153Z,8.43
2018-06-19T02:45:22.149Z,10.72
2018-06-19T02:46:22.146Z,9.68
2018-06-19T02:47:22.140Z,11.11
2018-06-19T02:48:22.131Z,8.91
2018-06-19T02:49:22.123Z,9.58
2018-06-19T02:50:22.116Z,10.63
2018-06-19T02:51:22.112Z,9.86
2018-06-19T02:52:22.108Z,11.59
2018-06-19T02:53:22.098Z,10.35
2018-06-19T02:54:22.095Z,11.88
2018-06-19T02:55:22.089Z,11.59
2018-06-19T02:56:22.083Z,11.60
2018-06-19T02:57:22.080Z,11.30
2018-06-19T02:58:22.066Z,11.59
2018-06-19T02:59:22.083Z,11.69
2018-06-19T03:00:22.168Z,11.30
2018-06-19T03:01:22.053Z,11.59
2018-06-19T03:02:22.044Z,11.78
2018-06-19T03:03:22.045Z,13.02
2018-06-19T03:04:22.035Z,12.26
2018-06-19T03:05:22.024Z,12.46
2018-06-19T03:06:36.733Z,12.27
2018-06-19T03:07:22.017Z,13.60
2018-06-19T03:08:22.014Z,12.26
2018-06-19T03:09:22.004Z,12.74
2018-06-19T03:10:22.001Z,13.21
2018-06-19T03:11:21.991Z,14.08
2018-06-19T03:12:21.985Z,13.89
2018-06-19T03:13:21.976Z,13.98
2018-06-19T03:14:21.973Z,12.93
2018-06-19T03:15:21.965Z,13.60
2018-06-19T03:16:21.961Z,14.27
2018-06-19T03:17:21.959Z,13.79
2018-06-19T03:18:21.950Z,13.98
2018-06-19T03:19:21.955Z,14.18
2018-06-19T03:20:21.936Z,13.51
2018-06-19T03:21:21.930Z,14.37
2018-06-19T03:22:21.926Z,13.98
2018-06-19T03:23:21.920Z,14.28
2018-06-19T03:24:21.916Z,13.70
2018-06-19T03:25:21.907Z,13.12
2018-06-19T03:26:21.899Z,13.99
2018-06-19T03:27:21.891Z,13.98
2018-06-19T03:28:21.889Z,14.09
2018-06-19T03:29:21.884Z,12.26
2018-06-19T03:30:21.935Z,14.28
2018-06-19T03:31:21.871Z,13.60
2018-06-19T03:32:21.865Z,13.23
2018-06-19T03:33:21.857Z,14.27
2018-06-19T03:34:21.852Z,12.46
2018-06-19T03:35:21.844Z,12.84
2018-06-19T03:36:21.851Z,13.70
2018-06-19T03:37:21.838Z,13.60
2018-06-19T03:38:21.829Z,12.35
2018-06-19T03:39:21.827Z,13.42
2018-06-19T03:40:21.812Z,12.64
2018-06-19T03:41:21.812Z,12.36
2018-06-19T03:42:21.803Z,13.12
2018-06-19T03:43:21.792Z,14.17
2018-06-19T03:44:21.788Z,14.95
2018-06-19T03:45:21.790Z,13.02
2018-06-19T03:46:21.784Z,14.95
2018-06-19T03:47:21.775Z,15.14
2018-06-19T03:48:21.765Z,15.62
2018-06-19T03:49:21.759Z,14.47
2018-06-19T03:50:21.754Z,15.71
2018-06-19T03:51:21.748Z,15.52
2018-06-19T03:52:21.744Z,15.62
2018-06-19T03:53:21.743Z,15.52
2018-06-19T03:54:21.729Z,16.10
2018-06-19T03:55:21.722Z,15.72
2018-06-19T03:56:21.718Z,15.43
2018-06-19T03:57:21.714Z,15.81
2018-06-19T03:58:21.712Z,15.52
2018-06-19T03:59:21.705Z,14.66
2018-06-19T04:00:21.697Z,14.56
2018-06-19T04:01:21.700Z,14.28
2018-06-19T04:02:21.685Z,14.76
2018-06-19T04:03:21.674Z,14.28
2018-06-19T04:04:21.674Z,14.85
2018-06-19T04:05:21.668Z,14.47
2018-06-19T04:06:21.662Z,14.18
2018-06-19T04:07:21.658Z,15.05
2018-06-19T04:08:21.662Z,14.76
2018-06-19T04:09:21.644Z,14.37
2018-06-19T04:10:21.662Z,14.28
2018-06-19T04:11:21.630Z,13.80
2018-06-19T04:12:21.624Z,14.56
2018-06-19T04:13:21.618Z,14.37
2018-06-19T04:14:21.625Z,13.80
2018-06-19T04:15:21.601Z,13.80
2018-06-19T04:16:21.601Z,13.60
2018-06-19T04:17:21.590Z,14.56
2018-06-19T04:18:21.587Z,13.60
2018-06-19T04:19:21.582Z,14.18
2018-06-19T04:20:21.574Z,14.09
2018-06-19T04:21:21.569Z,12.55
2018-06-19T04:22:21.563Z,14.47
2018-06-19T04:23:21.552Z,13.70
2018-06-19T04:24:21.553Z,13.13
2018-06-19T04:25:21.556Z,12.55
2018-06-19T04:26:21.541Z,13.32
2018-06-19T04:27:21.533Z,12.65
2018-06-19T04:28:21.527Z,13.99
2018-06-19T04:29:21.520Z,12.46
2018-06-19T04:30:21.513Z,12.65
2018-06-19T04:31:21.511Z,12.84
2018-06-19T04:32:21.505Z,12.84
2018-06-19T04:33:21.552Z,12.36
2018-06-19T04:34:21.494Z,11.69
2018-06-19T04:35:21.485Z,12.46
2018-06-19T04:36:21.478Z,13.03
2018-06-19T04:37:21.471Z,11.79
2018-06-19T04:38:21.475Z,13.80
2018-06-19T04:39:21.465Z,12.74
2018-06-19T04:40:21.462Z,13.89
2018-06-19T04:41:21.452Z,13.42
2018-06-19T04:42:21.445Z,14.09
2018-06-19T04:43:21.435Z,13.70
2018-06-19T04:44:21.429Z,14.47
2018-06-19T04:45:21.425Z,13.51
2018-06-19T04:46:21.421Z,13.60
2018-06-19T04:47:21.418Z,13.99
2018-06-19T04:48:21.414Z,13.60
2018-06-19T04:49:21.405Z,14.18
2018-06-19T04:50:21.395Z,13.89
2018-06-19T04:51:21.391Z,13.89
2018-06-19T04:52:21.399Z,12.46
2018-06-19T04:53:21.378Z,13.23
2018-06-19T04:54:21.376Z,12.84
2018-06-19T04:55:21.370Z,13.03
2018-06-19T04:56:21.368Z,13.23
2018-06-19T04:57:21.355Z,12.84
2018-06-19T04:58:21.375Z,14.28
2018-06-19T04:59:21.344Z,13.99
2018-06-19T05:00:21.337Z,12.55
2018-06-19T05:01:21.362Z,13.70
2018-06-19T05:02:21.344Z,12.93
2018-06-19T05:03:21.328Z,12.84
2018-06-19T05:04:21.319Z,12.46
2018-06-19T05:05:21.313Z,12.17
2018-06-19T05:06:21.308Z,12.65
2018-06-19T05:07:21.295Z,13.42
2018-06-19T05:08:21.290Z,12.65
2018-06-19T05:09:21.301Z,13.42
2018-06-19T05:10:21.285Z,12.27
2018-06-19T05:11:21.275Z,11.88
2018-06-19T05:12:21.270Z,12.36
2018-06-19T05:13:21.266Z,11.79
2018-06-19T05:14:21.259Z,10.83
2018-06-19T05:15:21.253Z,11.69
2018-06-19T05:16:21.244Z,10.73
2018-06-19T05:17:21.241Z,11.30
2018-06-19T05:18:21.236Z,9.77
2018-06-19T05:19:21.228Z,8.91
2018-06-19T05:20:21.243Z,9.58
2018-06-19T05:21:21.216Z,10.64
2018-06-19T05:22:21.208Z,9.58
2018-06-19T05:23:21.204Z,10.16
2018-06-19T05:24:21.205Z,10.16
2018-06-19T05:25:21.201Z,10.25
2018-06-19T05:26:21.189Z,11.11
2018-06-19T05:27:21.188Z,10.25
2018-06-19T05:28:21.177Z,10.54
2018-06-19T05:29:21.173Z,11.60
2018-06-19T05:30:21.176Z,11.21
2018-06-19T05:31:21.179Z,11.60
2018-06-19T05:32:21.154Z,10.35
2018-06-19T05:33:21.149Z,9.01
2018-06-19T05:34:21.143Z,9.48
2018-06-19T05:35:21.138Z,9.39
2018-06-19T05:36:21.130Z,9.68
2018-06-19T05:37:21.125Z,7.95
2018-06-19T05:38:21.120Z,8.91
2018-06-19T05:39:21.117Z,9.48
2018-06-19T05:40:21.109Z,7.86
2018-06-19T05:41:21.105Z,9.58
2018-06-19T05:42:21.100Z,8.62
2018-06-19T05:43:21.090Z,8.05
2018-06-19T05:44:21.088Z,8.91
2018-06-19T05:45:21.080Z,9.30
2018-06-19T05:46:21.136Z,8.62
2018-06-19T05:47:21.062Z,8.81
2018-06-19T05:48:21.064Z,8.91
2018-06-19T05:49:21.058Z,8.05
2018-06-19T05:50:21.052Z,7.86
2018-06-19T05:51:21.050Z,7.29
2018-06-19T05:52:21.046Z,7.38
2018-06-19T05:53:21.034Z,8.53
2018-06-19T05:54:21.031Z,8.91
2018-06-19T05:55:21.021Z,8.53
2018-06-19T05:56:21.017Z,9.10
2018-06-19T05:57:21.014Z,8.62
2018-06-19T05:58:21.008Z,9.10
2018-06-19T05:59:21.005Z,7.76
2018-06-19T06:00:21.000Z,7.57
2018-06-19T06:01:20.994Z,7.57
2018-06-19T06:02:21.022Z,7.57
2018-06-19T06:03:20.981Z,7.19
2018-06-19T06:04:20.972Z,7.67
2018-06-19T06:05:20.970Z,7.38
2018-06-19T06:06:20.964Z,7.86
2018-06-19T06:07:20.958Z,7.67
2018-06-19T06:08:20.952Z,7.18
2018-06-19T06:09:20.951Z,7.38
2018-06-19T06:10:20.943Z,7.09
2018-06-19T06:11:20.935Z,6.61
2018-06-19T06:12:20.926Z,6.42
2018-06-19T06:13:20.926Z,4.98
2018-06-19T06:14:20.921Z,4.41
2018-06-19T06:15:20.916Z,3.55
2018-06-19T06:16:20.930Z,3.74
2018-06-19T06:17:20.906Z,2.59
2018-06-19T06:18:20.946Z,3.06
2018-06-19T06:19:20.895Z,2.97
2018-06-19T06:20:20.890Z,2.49
2018-06-19T06:21:20.880Z,1.34
2018-06-19T06:22:20.874Z,2.68
2018-06-19T06:23:20.871Z,2.97
2018-06-19T06:24:20.865Z,2.39
2018-06-19T06:25:20.865Z,2.87
2018-06-19T06:26:20.855Z,0.67
2018-06-19T06:27:20.851Z,0.09
2018-06-19T06:28:20.841Z,0.00
2018-06-19T06:29:20.839Z,0.00
2018-06-19T06:30:20.833Z,0.00
2018-06-19T06:31:20.854Z,0.00
2018-06-19T06:32:20.822Z,0.00
2018-06-19T06:33:20.819Z,0.00
2018-06-19T06:34:20.812Z,0.09
2018-06-19T06:35:20.830Z,0.00
2018-06-19T06:36:20.803Z,0.19
2018-06-19T06:37:20.792Z,0.00
2018-06-19T06:38:20.787Z,0.19
2018-06-19T06:39:20.793Z,0.00
2018-06-19T06:40:20.778Z,0.00
2018-06-19T06:41:20.778Z,0.00
2018-06-19T06:42:20.791Z,0.00
2018-06-19T06:43:20.762Z,0.00
2018-06-19T06:44:20.756Z,0.00
2018-06-19T06:45:20.751Z,0.00
2018-06-19T06:46:20.747Z,0.29
2018-06-19T06:47:20.749Z,0.00
2018-06-19T06:48:20.737Z,0.09
2018-06-19T06:49:20.732Z,1.34
2018-06-19T06:50:20.754Z,3.64
2018-06-19T06:51:20.724Z,3.55
2018-06-19T06:52:20.716Z,4.03
2018-06-19T06:53:20.712Z,4.32
2018-06-19T06:54:20.707Z,4.03
2018-06-19T06:55:20.702Z,4.22
2018-06-19T06:56:20.703Z,3.55
2018-06-19T06:57:20.693Z,4.89
2018-06-19T06:58:20.689Z,4.41
2018-06-19T06:59:20.684Z,4.12
2018-06-19T07:00:20.678Z,2.87
2018-06-19T07:01:20.671Z,2.20
2018-06-19T07:02:20.683Z,2.59
2018-06-19T07:03:20.662Z,3.26
2018-06-19T07:04:20.660Z,3.93
2018-06-19T07:05:20.656Z,3.74
2018-06-19T07:06:20.651Z,4.22
2018-06-19T07:07:20.645Z,4.41
2018-06-19T07:08:20.641Z,4.22
2018-06-19T07:09:20.635Z,4.50
2018-06-19T07:10:20.657Z,5.18
2018-06-19T07:11:20.627Z,6.33
2018-06-19T07:12:20.618Z,5.95
2018-06-19T07:13:20.620Z,5.76
2018-06-19T07:14:20.613Z,4.22
2018-06-19T07:15:20.610Z,4.60
2018-06-19T07:16:20.603Z,5.85
2018-06-19T07:17:20.602Z,5.08
2018-06-19T07:18:20.595Z,5.18
2018-06-19T07:19:20.635Z,5.47
2018-06-19T07:20:20.587Z,6.14
2018-06-19T07:21:20.585Z,7.77
2018-06-19T07:22:20.609Z,6.71
2018-06-19T07:23:20.573Z,7.20
2018-06-19T07:24:20.571Z,7.20
2018-06-19T07:25:20.561Z,7.97
2018-06-19T07:26:20.566Z,7.20
2018-06-19T07:27:20.554Z,7.58
2018-06-19T07:28:20.550Z,8.54
2018-06-19T07:29:20.547Z,9.70
2018-06-19T07:30:20.544Z,11.14
2018-06-19T07:31:20.539Z,11.91
2018-06-19T07:32:20.533Z,13.82
2018-06-19T07:33:20.565Z,12.29
2018-06-19T07:34:20.523Z,11.52
2018-06-19T07:35:20.560Z,11.23
2018-06-19T07:36:20.518Z,11.04
2018-06-19T07:37:20.514Z,11.61
2018-06-19T07:38:20.542Z,10.94
2018-06-19T07:39:20.504Z,11.23
2018-06-19T07:40:20.503Z,13.44
2018-06-19T07:41:20.497Z,12.38
2018-06-19T07:42:20.491Z,14.69
2018-06-19T07:43:20.487Z,14.69
2018-06-19T07:44:20.486Z,14.02
2018-06-19T07:45:20.479Z,14.02
2018-06-19T07:46:20.477Z,13.92
2018-06-19T07:47:20.470Z,15.65
2018-06-19T07:48:20.472Z,15.75
2018-06-19T07:49:20.468Z,15.36
2018-06-19T07:50:20.461Z,14.21
2018-06-19T07:51:20.456Z,12.96
2018-06-19T07:52:20.450Z,13.44
2018-06-19T07:53:20.449Z,14.40
2018-06-19T07:54:20.442Z,14.02
2018-06-19T07:55:20.442Z,13.06
2018-06-19T07:56:20.434Z,10.17
2018-06-19T07:57:20.449Z,10.47
2018-06-19T07:58:20.472Z,10.56
2018-06-19T07:59:20.424Z,12.20
2018-06-19T08:00:20.421Z,9.80
2018-06-19T08:01:20.414Z,12.59
2018-06-19T08:02:20.410Z,13.45
2018-06-19T08:03:20.410Z,11.81
2018-06-19T08:04:20.404Z,12.19
2018-06-19T08:05:20.401Z,12.00
2018-06-19T08:06:20.399Z,9.89
2018-06-19T08:07:20.390Z,7.97
2018-06-19T08:08:20.394Z,9.70
2018-06-19T08:09:20.382Z,8.54
2018-06-19T08:10:20.381Z,7.68
2018-06-19T08:11:20.378Z,8.35
2018-06-19T08:12:20.370Z,9.41
2018-06-19T08:13:20.386Z,9.60
2018-06-19T08:14:20.367Z,10.57
2018-06-19T08:15:20.366Z,11.53
2018-06-19T08:16:20.361Z,11.15
2018-06-19T08:17:20.358Z,11.33
2018-06-19T08:18:20.361Z,10.66
2018-06-19T08:19:20.344Z,10.66
2018-06-19T08:20:20.342Z,10.38
2018-06-19T08:21:20.353Z,9.70
2018-06-19T08:22:20.341Z,10.66
2018-06-19T08:23:20.331Z,11.05
2018-06-19T08:24:20.328Z,11.53
2018-06-19T08:25:20.323Z,12.20
2018-06-19T08:26:20.319Z,11.91
2018-06-19T08:27:20.317Z,13.16
2018-06-19T08:28:20.311Z,12.39
2018-06-19T08:29:20.311Z,10.76
2018-06-19T08:30:20.302Z,8.55
2018-06-19T08:31:20.303Z,8.36
2018-06-19T08:32:20.299Z,9.99
2018-06-19T08:33:20.292Z,11.53
2018-06-19T08:34:20.290Z,14.79
2018-06-19T08:35:20.283Z,14.41
2018-06-19T08:36:20.303Z,11.82
2018-06-19T08:37:20.276Z,12.39
2018-06-19T08:38:20.280Z,12.10
2018-06-19T08:39:20.267Z,11.62
2018-06-19T08:40:20.268Z,11.82
2018-06-19T08:41:20.262Z,9.70
2018-06-19T08:42:20.266Z,12.20
2018-06-19T08:43:20.256Z,11.62
2018-06-19T08:44:20.251Z,10.08
2018-06-19T08:45:20.248Z,12.39
2018-06-19T08:46:20.246Z,10.38
2018-06-19T08:47:20.244Z,11.53
2018-06-19T08:48:20.241Z,12.59
2018-06-19T08:49:20.247Z,13.74
2018-06-19T08:50:20.232Z,13.16
2018-06-19T08:51:20.229Z,12.59
2018-06-19T08:52:20.223Z,13.54
2018-06-19T08:53:20.222Z,14.03
2018-06-19T08:54:20.261Z,13.93
2018-06-19T08:55:20.265Z,12.59
2018-06-19T08:56:20.208Z,11.53
2018-06-19T08:57:20.211Z,12.39
2018-06-19T08:58:20.202Z,12.77
2018-06-19T08:59:20.196Z,11.72
2018-06-19T09:00:20.220Z,12.40
2018-06-19T09:01:20.224Z,13.93
2018-06-19T09:02:20.184Z,14.42
2018-06-19T09:03:20.183Z,14.51
2018-06-19T09:04:20.182Z,15.86
2018-06-19T09:05:20.177Z,16.92
2018-06-19T09:06:20.174Z,17.49
2018-06-19T09:07:20.172Z,20.00
2018-06-19T09:08:20.177Z,21.72
2018-06-19T09:09:20.164Z,21.72
2018-06-19T09:10:20.164Z,20.57
2018-06-19T09:11:20.157Z,19.71
2018-06-19T09:12:20.155Z,22.69
2018-06-19T09:13:20.185Z,23.08
2018-06-19T09:14:20.160Z,23.85
2018-06-19T09:15:20.141Z,23.27
2018-06-19T09:16:20.139Z,20.77
2018-06-19T09:17:20.138Z,20.48
2018-06-19T09:18:20.132Z,21.73
2018-06-19T09:19:20.130Z,23.85
2018-06-19T09:20:20.158Z,22.41
2018-06-19T09:21:20.126Z,24.04
2018-06-19T09:22:20.124Z,25.48
2018-06-19T09:23:20.119Z,22.39
2018-06-19T09:24:20.113Z,20.86
2018-06-19T09:25:20.116Z,19.32
2018-06-19T09:26:20.109Z,18.46
2018-06-19T09:27:20.105Z,18.55
2018-06-19T09:28:20.104Z,17.30
2018-06-19T09:29:20.102Z,16.82
2018-06-19T09:30:20.097Z,18.26
2018-06-19T09:31:20.116Z,18.36
2018-06-19T09:32:20.092Z,17.88
2018-06-19T09:33:20.087Z,19.61
2018-06-19T09:34:20.081Z,20.18
2018-06-19T09:35:20.080Z,21.15
2018-06-19T09:36:20.082Z,21.44
2018-06-19T09:37:20.075Z,21.92
2018-06-19T09:38:20.072Z,20.10
2018-06-19T09:39:20.070Z,22.60
2018-06-19T09:40:20.068Z,24.23
2018-06-19T09:41:20.064Z,24.62
2018-06-19T09:42:20.058Z,23.75
2018-06-19T09:43:20.055Z,24.14
2018-06-19T09:44:20.050Z,22.79
2018-06-19T09:45:20.046Z,23.56
2018-06-19T09:46:20.100Z,20.48
2018-06-19T09:47:20.228Z,24.04
2018-06-19T09:48:20.215Z,23.18
2018-06-19T09:49:20.040Z,20.29
2018-06-19T09:50:20.034Z,21.25
2018-06-19T09:51:20.031Z,20.87
2018-06-19T09:52:20.027Z,18.46
2018-06-19T09:53:20.023Z,19.43
2018-06-19T09:54:20.025Z,22.02
2018-06-19T09:55:20.016Z,22.22
2018-06-19T09:56:20.037Z,18.95
2018-06-19T09:57:20.012Z,19.43
2018-06-19T09:58:20.022Z,18.75
2018-06-19T09:59:20.060Z,20.67
2018-06-19T10:00:19.999Z,22.60
2018-06-19T10:01:20.003Z,21.92
2018-06-19T10:02:19.995Z,22.31
2018-06-19T10:03:19.988Z,20.77
2018-06-19T10:04:19.990Z,20.39
2018-06-19T10:05:19.991Z,20.29
2018-06-19T10:06:19.998Z,21.54
2018-06-19T10:07:19.991Z,20.29
2018-06-19T10:08:19.979Z,21.64
2018-06-19T10:09:19.978Z,21.44
2018-06-19T10:10:19.973Z,22.22
2018-06-19T10:11:19.967Z,22.50
2018-06-19T10:12:20.042Z,21.92
2018-06-19T10:13:19.965Z,23.85
2018-06-19T10:14:19.955Z,22.50
2018-06-19T10:15:19.956Z,21.15
2018-06-19T10:16:19.951Z,18.56
2018-06-19T10:17:19.955Z,18.37
2018-06-19T10:18:19.951Z,20.00
2018-06-19T10:19:19.947Z,22.61
2018-06-19T10:20:19.937Z,21.26
2018-06-19T10:21:19.955Z,20.50
2018-06-19T10:22:19.931Z,22.71
2018-06-19T10:23:19.931Z,23.19
2018-06-19T10:24:19.928Z,22.99
2018-06-19T10:25:19.924Z,22.71
2018-06-19T10:26:19.921Z,22.13
2018-06-19T10:27:19.919Z,22.52
2018-06-19T10:28:19.920Z,22.90
2018-06-19T10:29:19.913Z,23.57
2018-06-19T10:30:19.909Z,25.59
2018-06-19T10:31:19.905Z,22.32
2018-06-19T10:32:19.908Z,22.80
2018-06-19T10:33:19.900Z,20.50
2018-06-19T10:34:19.896Z,21.45
2018-06-19T10:35:19.893Z,21.55
2018-06-19T10:36:19.892Z,24.24
2018-06-19T10:37:19.885Z,23.77
2018-06-19T10:38:19.883Z,23.19
2018-06-19T10:39:19.881Z,20.97
2018-06-19T10:40:19.892Z,16.64
2018-06-19T10:41:19.877Z,19.43
2018-06-19T10:42:19.875Z,21.84
2018-06-19T10:43:19.872Z,19.72
2018-06-19T10:44:19.862Z,22.61
2018-06-19T10:45:19.862Z,21.36
2018-06-19T10:46:19.861Z,21.55
2018-06-19T10:47:19.876Z,19.43
2018-06-19T10:48:19.855Z,20.79
2018-06-19T10:49:19.867Z,27.82
2018-06-19T10:50:19.853Z,25.60
2018-06-19T10:51:19.854Z,28.69
2018-06-19T10:52:19.852Z,28.30
2018-06-19T10:53:19.843Z,29.46
2018-06-19T10:54:19.840Z,30.32
2018-06-19T10:55:19.839Z,27.53
2018-06-19T10:56:19.837Z,28.97
2018-06-19T10:57:19.833Z,30.73
2018-06-19T10:58:19.834Z,31.57
2018-06-19T10:59:19.834Z,30.22
2018-06-19T11:00:19.828Z,30.22
2018-06-19T11:01:19.825Z,28.31
2018-06-19T11:02:19.828Z,27.35
2018-06-19T11:03:19.818Z,32.84
2018-06-19T11:04:19.818Z,35.44
2018-06-19T11:05:19.821Z,36.60
2018-06-19T11:06:19.815Z,39.11
2018-06-19T11:07:19.927Z,42.02
2018-06-19T11:08:19.880Z,40.76
2018-06-19T11:09:19.810Z,39.68
2018-06-19T11:10:19.810Z,37.39
2018-06-19T11:11:19.805Z,36.89
2018-06-19T11:12:19.804Z,35.16
2018-06-19T11:13:19.807Z,31.40
2018-06-19T11:14:19.801Z,39.87
2018-06-19T11:15:19.794Z,34.67
2018-06-19T11:16:19.800Z,36.31
2018-06-19T11:17:19.795Z,33.42
2018-06-19T11:18:19.791Z,36.79
2018-06-19T11:19:19.788Z,37.77
2018-06-19T11:20:19.789Z,36.52
2018-06-19T11:21:19.797Z,34.40
2018-06-19T11:22:19.785Z,37.39
2018-06-19T11:23:19.784Z,40.97
2018-06-19T11:24:19.785Z,39.91
2018-06-19T11:25:19.781Z,42.13
2018-06-19T11:26:19.791Z,47.34
2018-06-19T11:27:19.778Z,49.07
2018-06-19T11:28:19.776Z,49.29
2018-06-19T11:29:19.780Z,44.08
2018-06-19T11:30:19.774Z,45.72
2018-06-19T11:31:19.773Z,50.57
2018-06-19T11:32:19.774Z,60.13
2018-06-19T11:33:19.772Z,55.33
2018-06-19T11:34:19.769Z,64.86
2018-06-19T11:35:19.771Z,58.03
2018-06-19T11:36:19.773Z,58.70
2018-06-19T11:37:19.774Z,66.14
2018-06-19T11:38:19.771Z,66.82
2018-06-19T11:39:19.773Z,70.58
2018-06-19T11:40:19.771Z,64.05
2018-06-19T11:41:19.773Z,69.13
2018-06-19T11:42:19.769Z,68.88
2018-06-19T11:43:19.778Z,66.75
2018-06-19T11:44:19.772Z,66.85
2018-06-19T11:45:19.774Z,66.85
2018-06-19T11:46:19.775Z,71.88
2018-06-19T11:47:19.778Z,66.36
2018-06-19T11:48:19.775Z,69.17
2018-06-19T11:49:19.837Z,71.00
2018-06-19T11:50:19.777Z,67.04
2018-06-19T11:51:19.814Z,66.66
2018-06-19T11:52:19.784Z,68.40
2018-06-19T11:53:19.780Z,73.13
2018-06-19T11:54:19.783Z,71.48
2018-06-19T11:55:19.778Z,73.22
2018-06-19T11:56:19.777Z,74.00
2018-06-19T11:57:19.779Z,72.94
2018-06-19T11:58:19.781Z,72.45
2018-06-19T11:59:19.782Z,75.74
2018-06-19T12:00:19.781Z,75.74
2018-06-19T12:01:19.780Z,74.00
2018-06-19T12:02:19.796Z,73.42
2018-06-19T12:03:19.782Z,71.26
2018-06-19T12:04:19.777Z,72.13
2018-06-19T12:05:19.780Z,69.81
2018-06-19T12:06:19.786Z,68.84
2018-06-19T12:07:19.781Z,67.01
2018-06-19T12:08:19.782Z,64.40
2018-06-19T12:09:19.781Z,66.72
2018-06-19T12:10:19.785Z,64.98
2018-06-19T12:11:19.782Z,70.78
2018-06-19T12:12:19.784Z,69.23
2018-06-19T12:13:19.786Z,69.23
2018-06-19T12:14:19.782Z,68.84
2018-06-19T12:15:19.781Z,72.32
2018-06-19T12:16:19.779Z,68.55
2018-06-19T12:17:19.780Z,64.98
2018-06-19T12:18:19.782Z,66.14
2018-06-19T12:19:19.775Z,67.11
2018-06-19T12:20:19.778Z,65.56
2018-06-19T12:21:19.776Z,66.82
2018-06-19T12:22:19.782Z,65.37
2018-06-19T12:23:19.776Z,66.05
2018-06-19T12:24:19.780Z,69.46
2018-06-19T12:25:19.782Z,67.69
2018-06-19T12:26:19.785Z,67.30
2018-06-19T12:27:19.774Z,65.66
2018-06-19T12:28:19.777Z,63.53
2018-06-19T12:29:19.774Z,68.26
2018-06-19T12:30:19.773Z,69.84
2018-06-19T12:31:19.772Z,69.26
2018-06-19T12:32:19.770Z,72.26
2018-06-19T12:33:19.769Z,73.52
2018-06-19T12:34:19.771Z,73.94
2018-06-19T12:35:19.768Z,74.00
2018-06-19T12:36:19.769Z,71.78
2018-06-19T12:37:19.816Z,70.20
2018-06-19T12:38:19.779Z,70.58
2018-06-19T12:39:19.771Z,68.26
2018-06-19T12:40:19.779Z,66.11
2018-06-19T12:41:19.770Z,61.19
2018-06-19T12:42:19.771Z,60.71
2018-06-19T12:43:19.772Z,63.70
2018-06-19T12:44:19.770Z,62.82
2018-06-19T12:45:19.769Z,61.19
2018-06-19T12:46:19.769Z,62.92
2018-06-19T12:47:19.763Z,63.34
2018-06-19T12:48:19.771Z,61.51
2018-06-19T12:49:19.768Z,72.36
2018-06-19T12:50:19.769Z,69.94
2018-06-19T12:51:19.764Z,75.06
2018-06-19T12:52:19.764Z,75.06
2018-06-19T12:53:19.771Z,74.35
2018-06-19T12:54:19.765Z,73.58
2018-06-19T12:55:19.770Z,70.20
2018-06-19T12:56:19.779Z,72.22
2018-06-19T12:57:19.763Z,71.84
2018-06-19T12:58:19.761Z,69.23
2018-06-19T12:59:19.762Z,69.23
2018-06-19T13:00:19.762Z,73.61
2018-06-19T13:01:19.758Z,72.36